Terminal Aerodrome Forecast
Issued by NWS Buffalo, NY

Home | Current Version | Previous Version | Text Only | Print | Product List | Glossary On
Versions: 1 2 3 4 5 6 7 8 9 10 11 12 13 14 15 16 17 18 19 20 21 22 23 24 25 26 27
000
FTUS41 KBUF 211500 AAA
TAFROC
TAF AMD
KROC 211522Z 2115/2212 23019G28KT P6SM FEW045 SCT060 SCT070
     FM211800 25022G38KT P6SM SCT250
     FM212200 23018G30KT P6SM SCT250
     FM220100 22010KT P6SM SCT070
     FM220300 22010KT P6SM BKN050=

USA.gov is the U.S. government's official web portal to all federal, state and local government web resources and services.